Time;durP1;ratioP1;P1;durP2;ratioP2;P2;SDS_P1;SDS_P2;PMS_P1;PMS_P2;Temp;Humidity;BMP_temperature;BMP_pressure;BME280_temperature;BME280_humidity;BME280_pressure;Samples;Min_cycle;Max_cycle;Signal;HPM_P1;HPM_P2
2022/01/11 00:00:10;;;;;;;16.30;8.50;;;;;;;0.12;100.00;99697.13;4787839;29;20035;-68
2022/01/11 00:02:40;;;;;;;17.20;8.17;;;;;;;0.00;100.00;99704.16;4787818;29;20361;-68
2022/01/11 00:05:06;;;;;;;16.42;8.52;;;;;;;-0.09;100.00;99702.22;4788017;29;20267;-68
2022/01/11 00:07:35;;;;;;;17.27;9.18;;;;;;;-0.22;100.00;99704.09;4787803;29;20410;-68
2022/01/11 00:10:01;;;;;;;18.60;9.40;;;;;;;-0.21;100.00;99711.00;4787686;29;20453;-68
2022/01/11 00:12:27;;;;;;;19.75;9.40;;;;;;;-0.16;100.00;99710.69;4771559;30;20031;-68
2022/01/11 00:14:52;;;;;;;18.87;9.67;;;;;;;-0.14;100.00;99707.00;4787783;29;20413;-68
2022/01/11 00:17:18;;;;;;;18.77;9.50;;;;;;;-0.18;100.00;99710.78;4786524;30;20037;-69
2022/01/11 00:19:45;;;;;;;21.47;10.83;;;;;;;-0.14;100.00;99714.88;4787706;29;20505;-68
2022/01/11 00:22:17;;;;;;;19.40;10.10;;;;;;;-0.06;100.00;99714.28;4787572;30;20079;-68
2022/01/11 00:24:43;;;;;;;22.10;10.05;;;;;;;0.02;100.00;99724.22;4787686;29;20042;-68
2022/01/11 00:27:11;;;;;;;20.37;9.33;;;;;;;0.03;100.00;99712.75;4787566;29;20031;-68
2022/01/11 00:29:44;;;;;;;19.08;9.85;;;;;;;-0.01;100.00;99714.81;4787572;29;20050;-68
2022/01/11 00:32:15;;;;;;;18.25;9.35;;;;;;;0.00;100.00;99713.84;4787443;29;20039;-68
2022/01/11 00:34:48;;;;;;;22.10;10.70;;;;;;;0.00;100.00;99725.16;4771974;30;20032;-68
2022/01/11 00:37:15;;;;;;;19.15;9.90;;;;;;;0.12;100.00;99722.56;4787462;29;20039;-68
2022/01/11 00:39:45;;;;;;;19.38;9.85;;;;;;;0.24;100.00;99738.25;4787383;29;20076;-65
2022/01/11 00:42:15;;;;;;;18.30;9.47;;;;;;;0.27;100.00;99738.00;4787196;29;20023;-65
2022/01/11 00:44:41;;;;;;;20.33;10.25;;;;;;;0.26;100.00;99744.22;4785833;29;20687;-65
2022/01/11 00:47:07;;;;;;;19.17;10.03;;;;;;;0.14;100.00;99733.81;4786787;29;20043;-68
2022/01/11 00:49:34;;;;;;;16.93;9.23;;;;;;;0.31;100.00;99743.88;4786999;29;20050;-68
2022/01/11 00:52:00;;;;;;;19.03;10.10;;;;;;;0.56;100.00;99745.47;4787078;29;20038;-68
2022/01/11 00:54:26;;;;;;;17.10;9.03;;;;;;;0.57;100.00;99744.53;4787167;29;20267;-68
2022/01/11 00:56:51;;;;;;;18.07;9.13;;;;;;;0.63;100.00;99749.31;4787053;29;20278;-68
2022/01/11 00:59:17;;;;;;;19.90;10.10;;;;;;;0.63;100.00;99750.13;4786923;29;20046;-68
2022/01/11 01:01:45;;;;;;;17.53;9.50;;;;;;;0.56;100.00;99753.38;4787003;29;20042;-67
2022/01/11 01:04:11;;;;;;;18.63;10.10;;;;;;;0.56;100.00;99758.63;4786864;29;20071;-67
2022/01/11 01:06:39;;;;;;;20.10;10.53;;;;;;;0.55;100.00;99756.94;4785759;30;20742;-68
2022/01/11 01:09:06;;;;;;;21.07;10.67;;;;;;;0.73;100.00;99758.16;4786683;29;20110;-68
2022/01/11 01:11:32;;;;;;;19.47;9.97;;;;;;;0.70;100.00;99764.47;4786753;29;20302;-68
2022/01/11 01:13:58;;;;;;;20.37;10.27;;;;;;;0.72;100.00;99770.47;4786752;29;20283;-67
2022/01/11 01:16:24;;;;;;;18.43;10.30;;;;;;;0.74;100.00;99770.34;4786599;29;20275;-68
2022/01/11 01:18:50;;;;;;;19.03;10.37;;;;;;;0.68;100.00;99762.94;4786704;29;20161;-68
2022/01/11 01:21:17;;;;;;;18.50;9.90;;;;;;;0.76;100.00;99776.34;4786693;29;20081;-68
2022/01/11 01:23:43;;;;;;;17.77;9.93;;;;;;;0.79;100.00;99775.25;4786631;29;20838;-67
2022/01/11 01:26:09;;;;;;;16.40;9.60;;;;;;;0.80;100.00;99761.16;4785398;30;20275;-67
2022/01/11 01:28:35;;;;;;;19.33;9.93;;;;;;;0.83;100.00;99771.41;4785362;30;20031;-68
2022/01/11 01:31:01;;;;;;;18.00;10.13;;;;;;;0.85;100.00;99778.25;4786456;29;20295;-67
2022/01/11 01:33:29;;;;;;;17.97;9.43;;;;;;;0.84;100.00;99779.19;4786536;29;20284;-68
2022/01/11 01:36:01;;;;;;;18.07;9.77;;;;;;;0.84;100.00;99787.09;4786691;29;20282;-68
2022/01/11 01:38:28;;;;;;;19.67;10.13;;;;;;;0.96;100.00;99786.13;4786567;29;20360;-68
2022/01/11 01:41:00;;;;;;;15.67;9.17;;;;;;;0.94;100.00;99795.94;4786572;29;20279;-68
2022/01/11 01:43:26;;;;;;;17.87;9.57;;;;;;;1.04;100.00;99796.06;4786387;29;20303;-67
2022/01/11 01:45:52;;;;;;;18.73;9.73;;;;;;;1.11;100.00;99791.16;4786544;29;20374;-67
2022/01/11 01:48:19;;;;;;;18.07;9.10;;;;;;;0.99;100.00;99799.06;4786171;29;20044;-68
2022/01/11 01:50:48;;;;;;;18.47;10.40;;;;;;;0.95;100.00;99802.03;4786063;29;20322;-67
2022/01/11 01:53:14;;;;;;;18.30;9.87;;;;;;;0.96;100.00;99803.72;4786284;29;20346;-68
2022/01/11 01:55:41;;;;;;;17.73;9.50;;;;;;;0.97;100.00;99800.97;4786212;29;20286;-68
2022/01/11 01:58:08;;;;;;;17.90;9.93;;;;;;;1.08;100.00;99802.75;4785324;29;20654;-68
2022/01/11 02:00:40;;;;;;;17.80;9.93;;;;;;;0.88;100.00;99795.59;4786206;29;20272;-68
2022/01/11 02:03:12;;;;;;;20.67;10.27;;;;;;;0.87;100.00;99797.38;4786090;29;20779;-68
2022/01/11 02:05:42;;;;;;;19.23;10.15;;;;;;;0.75;100.00;99805.38;4786151;29;20284;-67
2022/01/11 02:08:09;;;;;;;18.17;9.87;;;;;;;0.67;100.00;99804.19;4786112;29;20035;-67
2022/01/11 02:10:39;;;;;;;22.10;10.87;;;;;;;0.57;100.00;99803.22;4786269;29;20293;-68
2022/01/11 02:13:05;;;;;;;21.87;11.13;;;;;;;0.61;100.00;99804.63;4786010;30;20271;-68
2022/01/11 02:15:32;;;;;;;20.83;11.10;;;;;;;0.62;100.00;99795.81;4786091;29;20284;-68
2022/01/11 02:18:14;;;;;;;22.67;10.87;;;;;;;0.77;100.00;99812.22;4786091;29;20271;-67
2022/01/11 02:20:43;;;;;;;21.03;10.73;;;;;;;0.77;100.00;99809.56;4786060;29;20274;-68
2022/01/11 02:23:09;;;;;;;22.73;11.17;;;;;;;0.81;100.00;99815.44;4785957;29;20290;-68
2022/01/11 02:25:36;;;;;;;21.53;10.60;;;;;;;0.62;100.00;99816.00;4785961;29;20345;-67
2022/01/11 02:28:02;;;;;;;21.20;11.00;;;;;;;0.65;100.00;99816.63;4786077;29;20042;-67
2022/01/11 02:30:32;;;;;;;21.20;11.40;;;;;;;0.65;100.00;99814.00;4785943;29;20279;-68
2022/01/11 02:32:57;;;;;;;20.20;11.10;;;;;;;0.59;100.00;99817.06;4785880;29;20279;-67
2022/01/11 02:35:23;;;;;;;24.23;12.33;;;;;;;0.31;100.00;99822.75;4786059;29;20325;-67
2022/01/11 02:37:48;;;;;;;22.87;12.47;;;;;;;0.42;100.00;99819.31;4785886;29;20046;-67
2022/01/11 02:40:14;;;;;;;24.10;12.30;;;;;;;0.37;100.00;99830.16;4785803;29;20110;-67
2022/01/11 02:42:40;;;;;;;25.70;13.17;;;;;;;0.28;100.00;99833.47;4785920;29;20051;-67
2022/01/11 02:45:17;;;;;;;28.27;13.30;;;;;;;0.28;100.00;99838.75;4785818;30;20279;-67
2022/01/11 02:47:44;;;;;;;23.50;12.40;;;;;;;0.28;100.00;99839.56;4785680;29;20055;-67
2022/01/11 02:50:11;;;;;;;23.77;13.20;;;;;;;0.48;100.00;99827.56;4785668;29;20397;-67
2022/01/11 02:52:37;;;;;;;23.67;12.47;;;;;;;0.62;100.00;99840.50;4785741;29;20322;-67
2022/01/11 02:55:10;;;;;;;21.37;11.17;;;;;;;0.53;100.00;99837.75;4784750;30;20344;-67
2022/01/11 02:57:36;;;;;;;23.48;11.30;;;;;;;0.49;100.00;99837.13;4785777;29;20753;-67
2022/01/11 03:00:08;;;;;;;22.87;11.30;;;;;;;0.48;100.00;99842.50;4784756;30;20096;-67
2022/01/11 03:02:33;;;;;;;22.13;11.33;;;;;;;0.57;100.00;99834.78;4786063;29;20626;-67
2022/01/11 03:04:59;;;;;;;22.87;11.60;;;;;;;0.52;100.00;99836.06;4786093;29;20271;-67
2022/01/11 03:07:24;;;;;;;23.83;11.13;;;;;;;0.41;100.00;99836.03;4784587;30;20038;-67
2022/01/11 03:12:23;;;;;;;23.83;12.37;;;;;;;0.36;100.00;99831.09;4789094;29;20036;-67
2022/01/11 03:14:48;;;;;;;22.80;11.93;;;;;;;0.30;100.00;99842.94;4788914;29;20267;-67
2022/01/11 03:17:14;;;;;;;21.20;11.50;;;;;;;0.27;100.00;99832.66;4788864;29;20272;-67
2022/01/11 03:19:39;;;;;;;21.83;11.70;;;;;;;0.22;100.00;99834.78;4788910;29;20038;-67
2022/01/11 03:22:05;;;;;;;23.23;11.97;;;;;;;0.34;100.00;99833.88;4788776;29;20088;-67
2022/01/11 03:24:30;;;;;;;25.00;12.70;;;;;;;0.40;100.00;99839.63;4789102;29;20088;-67
2022/01/11 03:26:56;;;;;;;22.00;10.93;;;;;;;0.38;100.00;99833.63;4788524;29;20042;-65
2022/01/11 03:29:21;;;;;;;22.23;11.50;;;;;;;0.39;100.00;99836.16;4788666;29;20559;-67
2022/01/11 03:31:47;;;;;;;21.03;11.43;;;;;;;0.20;100.00;99844.56;4772455;30;20081;-67
2022/01/11 03:34:18;;;;;;;19.40;10.60;;;;;;;0.19;100.00;99835.00;4788588;29;20035;-67
2022/01/11 03:36:44;;;;;;;23.37;11.93;;;;;;;0.13;100.00;99840.72;4788671;29;20031;-67
2022/01/11 03:39:09;;;;;;;24.00;12.13;;;;;;;0.20;100.00;99847.22;4787269;30;20766;-67
2022/01/11 03:41:35;;;;;;;22.17;11.67;;;;;;;0.06;100.00;99838.66;4788453;29;20328;-67
2022/01/11 03:44:01;;;;;;;23.03;11.60;;;;;;;0.08;100.00;99840.22;4788572;29;20386;-67
2022/01/11 03:46:27;;;;;;;22.25;11.15;;;;;;;0.05;100.00;99850.94;4788362;29;20410;-67
2022/01/11 03:48:52;;;;;;;21.27;11.43;;;;;;;0.16;100.00;99853.63;4788174;29;20051;-65
2022/01/11 03:51:18;;;;;;;23.20;12.07;;;;;;;0.23;100.00;99851.41;4788225;29;20402;-65
2022/01/11 03:53:56;;;;;;;22.37;11.83;;;;;;;0.04;100.00;99851.91;4788130;29;20076;-65
2022/01/11 03:56:21;;;;;;;23.83;13.93;;;;;;;-0.10;100.00;99845.03;4787051;30;20490;-67
2022/01/11 03:58:49;;;;;;;23.93;12.63;;;;;;;-0.21;100.00;99852.84;4788194;29;20050;-67
2022/01/11 04:01:15;;;;;;;24.88;12.32;;;;;;;-0.29;100.00;99851.72;4787955;29;20036;-67
2022/01/11 04:03:41;;;;;;;23.58;12.00;;;;;;;-0.28;100.00;99856.03;4788009;29;20490;-67
2022/01/11 04:06:06;;;;;;;25.83;12.47;;;;;;;-0.33;100.00;99847.63;4788029;29;20039;-67
2022/01/11 04:08:32;;;;;;;26.47;11.60;;;;;;;-0.36;100.00;99853.97;4787910;29;20031;-67
2022/01/11 04:10:57;;;;;;;28.33;12.23;;;;;;;-0.34;100.00;99848.56;4787837;29;20052;-67
2022/01/11 04:13:23;;;;;;;24.43;11.83;;;;;;;-0.34;100.00;99841.53;4787822;29;20031;-67
2022/01/11 04:15:49;;;;;;;26.07;11.83;;;;;;;-0.47;100.00;99852.09;4788008;29;20110;-67
2022/01/11 04:18:14;;;;;;;25.57;12.60;;;;;;;-0.57;100.00;99858.09;4787763;29;20054;-67
2022/01/11 04:20:40;;;;;;;26.30;12.20;;;;;;;-0.64;100.00;99848.97;4786781;29;20103;-67
2022/01/11 04:23:11;;;;;;;27.77;12.90;;;;;;;-0.67;100.00;99851.81;4787654;29;20027;-67
2022/01/11 04:25:36;;;;;;;24.83;11.85;;;;;;;-0.81;100.00;99858.06;4787694;29;20032;-67
2022/01/11 04:28:02;;;;;;;23.80;11.53;;;;;;;-0.75;100.00;99862.88;4787536;29;20096;-67
2022/01/11 04:30:28;;;;;;;27.17;12.43;;;;;;;-0.75;100.00;99865.50;4786210;30;20046;-67
2022/01/11 04:32:53;;;;;;;28.27;12.97;;;;;;;-0.82;100.00;99882.63;4786287;30;20034;-67
2022/01/11 04:35:19;;;;;;;25.87;11.83;;;;;;;-0.82;100.00;99875.59;4787529;29;20071;-67
2022/01/11 04:37:45;;;;;;;29.67;13.03;;;;;;;-0.88;100.00;99880.41;4787290;29;20047;-67
2022/01/11 04:40:12;;;;;;;35.50;14.85;;;;;;;-0.91;100.00;99893.72;4787228;29;20130;-67
2022/01/11 04:42:37;;;;;;;27.55;12.73;;;;;;;-0.94;100.00;99897.41;4787312;29;20057;-67
2022/01/11 04:45:04;;;;;;;27.60;12.73;;;;;;;-0.96;100.00;99895.84;4787400;29;20031;-67
2022/01/11 04:47:29;;;;;;;27.45;12.57;;;;;;;-1.00;100.00;99904.84;4785995;29;20382;-67
2022/01/11 04:49:54;;;;;;;33.80;13.33;;;;;;;-1.01;100.00;99898.75;4787040;29;20062;-67
2022/01/11 04:52:20;;;;;;;30.87;12.97;;;;;;;-0.82;100.00;99906.22;4787397;29;20067;-67
2022/01/11 04:54:46;;;;;;;31.20;13.13;;;;;;;-0.83;100.00;99904.56;4787183;29;20092;-67
2022/01/11 04:57:11;;;;;;;29.20;12.87;;;;;;;-0.72;100.00;99909.91;4787157;29;20070;-67
2022/01/11 04:59:37;;;;;;;29.73;14.03;;;;;;;-0.60;100.00;99902.97;4787167;29;20059;-67
2022/01/11 05:02:02;;;;;;;26.97;12.70;;;;;;;-0.54;100.00;99902.50;4787290;29;20070;-67
2022/01/11 05:04:28;;;;;;;27.93;11.63;;;;;;;-0.54;100.00;99899.88;4786991;29;20031;-67
2022/01/11 05:06:55;;;;;;;24.20;11.27;;;;;;;-0.48;100.00;99904.72;4787190;29;20027;-68
2022/01/11 05:09:22;;;;;;;22.27;10.45;;;;;;;-0.44;100.00;99907.00;4785786;30;20114;-67
2022/01/11 05:11:47;;;;;;;21.50;10.30;;;;;;;-0.44;100.00;99909.63;4786851;29;20092;-67
2022/01/11 05:14:13;;;;;;;19.07;10.00;;;;;;;-0.46;100.00;99908.91;4786864;29;20038;-67
2022/01/11 05:16:38;;;;;;;20.20;9.97;;;;;;;-0.50;100.00;99912.69;4787167;29;20050;-67
2022/01/11 05:19:06;;;;;;;21.77;10.27;;;;;;;-0.63;100.00;99911.03;4786780;29;20620;-67
2022/01/11 05:21:32;;;;;;;20.83;10.07;;;;;;;-0.67;100.00;99913.03;4786747;29;20122;-67
2022/01/11 05:23:58;;;;;;;20.73;9.70;;;;;;;-0.73;100.00;99918.72;4785688;30;20118;-67
2022/01/11 05:26:24;;;;;;;19.70;9.77;;;;;;;-0.81;100.00;99911.34;4786532;29;20051;-67
2022/01/11 05:28:49;;;;;;;21.67;9.67;;;;;;;-0.92;100.00;99915.66;4786586;29;20039;-67
2022/01/11 05:31:15;;;;;;;22.97;10.47;;;;;;;-0.92;100.00;99915.66;4786336;29;20061;-67
2022/01/11 05:33:40;;;;;;;22.93;10.70;;;;;;;-1.10;100.00;99915.97;4786532;29;20031;-67
2022/01/11 05:36:06;;;;;;;22.37;10.60;;;;;;;-0.98;100.00;99916.09;4786675;29;20042;-67
2022/01/11 05:38:31;;;;;;;20.93;10.63;;;;;;;-0.99;100.00;99919.66;4786307;29;20034;-67
2022/01/11 05:40:57;;;;;;;22.10;10.97;;;;;;;-0.91;100.00;99922.59;4786495;29;20043;-67
2022/01/11 05:43:23;;;;;;;19.20;9.50;;;;;;;-0.92;100.00;99923.53;4786261;29;20521;-67
2022/01/11 05:45:48;;;;;;;20.73;10.17;;;;;;;-1.05;100.00;99925.31;4786236;29;20031;-67
2022/01/11 05:48:14;;;;;;;21.27;10.70;;;;;;;-1.07;100.00;99921.97;4786137;29;21050;-67
2022/01/11 05:50:41;;;;;;;21.27;9.90;;;;;;;-1.16;100.00;99932.13;4786219;29;20034;-67
2022/01/11 05:53:07;;;;;;;22.10;10.38;;;;;;;-1.30;100.00;99932.22;4786283;29;20067;-67
2022/01/11 05:55:32;;;;;;;24.13;11.00;;;;;;;-1.37;100.00;99930.91;4786074;29;20069;-67
2022/01/11 05:57:58;;;;;;;24.33;10.53;;;;;;;-1.48;100.00;99943.91;4786147;29;20042;-67
2022/01/11 06:00:23;;;;;;;20.70;10.03;;;;;;;-1.61;100.00;99941.25;4785993;29;20047;-67
2022/01/11 06:02:54;;;;;;;27.37;11.23;;;;;;;-1.68;100.00;99941.75;4785149;30;20459;-67
2022/01/11 06:05:20;;;;;;;23.70;11.20;;;;;;;-1.70;100.00;99938.38;4786026;29;20039;-67
2022/01/11 06:07:46;;;;;;;23.80;11.25;;;;;;;-1.75;100.00;99943.94;4786208;29;20035;-67
2022/01/11 06:10:11;;;;;;;27.67;12.30;;;;;;;-1.75;100.00;99940.47;4786140;29;20177;-67
2022/01/11 06:12:37;;;;;;;23.97;11.57;;;;;;;-1.77;100.00;99940.56;4784914;30;20096;-67
2022/01/11 06:15:04;;;;;;;26.07;12.10;;;;;;;-1.75;100.00;99959.66;4786037;29;20031;-67
2022/01/11 06:17:29;;;;;;;28.55;11.98;;;;;;;-1.77;100.00;99951.06;4785937;29;20039;-67
2022/01/11 06:19:55;;;;;;;25.50;11.53;;;;;;;-1.81;100.00;99965.28;4786066;29;20058;-67
2022/01/11 06:22:21;;;;;;;26.30;11.63;;;;;;;-1.87;100.00;99969.13;4786050;29;20103;-67
2022/01/11 06:24:47;;;;;;;26.50;11.75;;;;;;;-1.86;100.00;99964.75;4786186;29;20517;-67
2022/01/11 06:27:13;;;;;;;28.63;12.55;;;;;;;-1.79;100.00;99968.63;4785008;30;20403;-67
2022/01/11 06:29:39;;;;;;;28.97;12.83;;;;;;;-1.80;100.00;99969.56;4786180;29;20114;-67
2022/01/11 06:32:05;;;;;;;28.27;13.27;;;;;;;-1.85;100.00;99971.66;4786026;29;20028;-67
2022/01/11 06:34:30;;;;;;;29.67;13.37;;;;;;;-1.87;100.00;99976.16;4786072;29;20035;-67
2022/01/11 06:36:56;;;;;;;30.10;13.40;;;;;;;-1.90;100.00;99978.97;4786169;29;20070;-67
2022/01/11 06:39:22;;;;;;;30.80;14.55;;;;;;;-1.87;100.00;99979.63;4785927;29;20050;-67
2022/01/11 06:41:47;;;;;;;36.70;14.63;;;;;;;-1.87;100.00;99991.88;4785890;29;20490;-67
2022/01/11 06:44:13;;;;;;;42.10;16.60;;;;;;;-1.74;100.00;99998.03;4786483;29;20490;-67
2022/01/11 06:46:38;;;;;;;32.30;15.20;;;;;;;-1.64;100.00;99988.63;4789237;29;20482;-67
2022/01/11 06:49:04;;;;;;;38.37;16.60;;;;;;;-1.68;100.00;100002.00;4788991;29;20051;-67
2022/01/11 06:51:31;;;;;;;36.10;17.00;;;;;;;-1.53;100.00;99999.25;4789165;29;20031;-67
2022/01/11 06:53:56;;;;;;;32.28;14.32;;;;;;;-1.46;100.00;100013.63;4789190;29;20126;-67
2022/01/11 06:56:22;;;;;;;30.43;13.80;;;;;;;-1.48;100.00;100012.88;4789083;29;20126;-67
2022/01/11 06:58:48;;;;;;;25.77;13.43;;;;;;;-1.57;100.00;100008.25;4789547;29;20035;-67
2022/01/11 07:01:14;;;;;;;27.03;13.10;;;;;;;-1.65;100.00;100007.06;4797079;29;20504;-67
2022/01/11 07:03:40;;;;;;;28.50;13.45;;;;;;;-1.70;100.00;100009.97;4797896;29;20747;-67
2022/01/11 07:06:05;;;;;;;28.37;13.83;;;;;;;-1.76;100.00;100012.16;4796647;29;20035;-67
2022/01/11 07:08:31;;;;;;;31.60;13.57;;;;;;;-1.78;100.00;100014.88;4796545;29;20026;-67
2022/01/11 07:10:57;;;;;;;29.53;14.17;;;;;;;-1.66;100.00;100015.88;4807339;29;20030;-67
2022/01/11 07:13:23;;;;;;;30.60;15.45;;;;;;;-1.67;100.00;100024.66;4817646;29;20042;-66
2022/01/11 07:15:48;;;;;;;28.83;14.20;;;;;;;-1.61;100.00;100024.25;4816165;29;20047;-67
2022/01/11 07:18:14;;;;;;;34.37;16.37;;;;;;;-1.60;100.00;100025.94;4804438;29;20057;-68
2022/01/11 07:20:43;;;;;;;30.63;14.97;;;;;;;-1.54;100.00;100034.28;4806515;29;20144;-66
2022/01/11 07:23:10;;;;;;;47.45;19.95;;;;;;;-1.51;100.00;100023.59;4807045;29;20077;-67
2022/01/11 07:25:35;;;;;;;50.30;20.95;;;;;;;-1.51;100.00;100030.63;4816384;29;20042;-66
2022/01/11 07:28:02;;;;;;;31.33;15.83;;;;;;;-1.50;100.00;100027.88;4819759;29;20046;-66
2022/01/11 07:30:28;;;;;;;30.17;15.20;;;;;;;-1.28;100.00;100035.22;4823244;29;20050;-66
2022/01/11 07:32:53;;;;;;;32.47;14.83;;;;;;;-1.31;100.00;100032.78;4824650;29;20090;-65
2022/01/11 07:35:20;;;;;;;31.17;13.90;;;;;;;-1.23;100.00;100037.53;4824434;29;20034;-70
2022/01/11 07:37:45;;;;;;;28.83;13.52;;;;;;;-1.18;100.00;100040.69;4824791;29;20426;-73
2022/01/11 07:40:11;;;;;;;27.50;12.57;;;;;;;-1.13;100.00;100035.97;4818949;29;20034;-70
2022/01/11 07:42:37;;;;;;;23.85;11.85;;;;;;;-1.24;100.00;100051.56;4814562;29;20033;-70
2022/01/11 07:45:03;;;;;;;25.50;12.47;;;;;;;-1.07;100.00;100048.69;4806509;29;20034;-70
2022/01/11 07:47:29;;;;;;;28.02;12.65;;;;;;;-1.10;100.00;100049.75;4806549;29;20058;-70
2022/01/11 07:49:54;;;;;;;28.10;12.83;;;;;;;-1.11;100.00;100052.47;4804559;29;20079;-69
2022/01/11 07:52:20;;;;;;;28.83;14.23;;;;;;;-1.12;100.00;100048.16;4805894;29;20030;-68
2022/01/11 07:54:46;;;;;;;28.57;13.47;;;;;;;-1.11;100.00;100065.56;4806309;29;20483;-69
2022/01/11 07:57:11;;;;;;;28.07;13.87;;;;;;;-1.14;100.00;100066.59;4806372;29;20562;-68
2022/01/11 07:59:37;;;;;;;29.70;14.83;;;;;;;-1.12;100.00;100069.13;4805747;29;20152;-69
2022/01/11 08:02:03;;;;;;;28.70;14.03;;;;;;;-1.07;100.00;100076.72;4805892;29;20027;-68
2022/01/11 08:04:31;;;;;;;27.63;13.93;;;;;;;-0.54;100.00;100071.38;4805094;29;20517;-70
2022/01/11 08:06:59;;;;;;;26.10;13.98;;;;;;;0.56;100.00;100067.16;4805971;29;20031;-66
2022/01/11 08:09:25;;;;;;;24.35;13.20;;;;;;;1.21;100.00;100072.00;4805885;29;20034;-66
2022/01/11 08:11:51;;;;;;;22.33;12.47;;;;;;;1.80;100.00;100074.53;4804763;29;20482;-67
2022/01/11 08:14:17;;;;;;;20.77;11.23;;;;;;;2.57;100.00;100070.19;4805725;29;20267;-67
2022/01/11 08:16:43;;;;;;;20.33;11.07;;;;;;;3.27;100.00;100075.00;4805784;29;20363;-68
2022/01/11 08:19:09;;;;;;;19.13;10.00;;;;;;;3.09;100.00;100080.03;4805613;29;20289;-68
2022/01/11 08:21:34;;;;;;;17.20;9.93;;;;;;;3.92;100.00;100080.03;4805051;29;20038;-67
2022/01/11 08:23:59;;;;;;;18.00;10.57;;;;;;;4.24;100.00;100082.56;4805801;29;20038;-68
2022/01/11 08:26:25;;;;;;;18.07;10.43;;;;;;;4.67;100.00;100079.63;4805477;29;20034;-68
2022/01/11 08:28:51;;;;;;;17.70;9.20;;;;;;;3.72;100.00;100087.97;4805496;29;20035;-67
2022/01/11 08:31:16;;;;;;;17.10;10.13;;;;;;;3.68;100.00;100099.81;4805272;29;20537;-67
2022/01/11 08:33:42;;;;;;;16.10;9.73;;;;;;;3.59;100.00;100104.03;4805221;29;20031;-67
2022/01/11 08:36:07;;;;;;;18.57;9.67;;;;;;;3.33;100.00;100100.94;4813850;29;20075;-67
2022/01/11 08:38:36;;;;;;;16.30;10.00;;;;;;;3.84;100.00;100103.66;4823837;29;20035;-67
2022/01/11 08:41:02;;;;;;;20.10;10.53;;;;;;;4.16;100.00;100098.25;4823465;29;20035;-67
2022/01/11 08:43:27;;;;;;;16.63;9.90;;;;;;;4.66;100.00;100095.66;4823596;29;20285;-66
2022/01/11 08:45:53;;;;;;;17.13;9.70;;;;;;;5.58;100.00;100101.44;4823512;29;20463;-65
2022/01/11 08:48:18;;;;;;;19.77;11.63;;;;;;;4.92;100.00;100118.00;4823313;29;20509;-64
2022/01/11 08:50:44;;;;;;;15.00;9.43;;;;;;;4.44;100.00;100109.94;4820096;29;20067;-65
2022/01/11 08:53:09;;;;;;;17.07;9.93;;;;;;;3.80;100.00;100128.69;4810133;29;20046;-67
2022/01/11 08:55:35;;;;;;;17.87;10.03;;;;;;;3.24;100.00;100126.28;4820583;29;20465;-67
2022/01/11 08:58:01;;;;;;;19.20;11.30;;;;;;;3.10;100.00;100126.59;4805656;29;20033;-67
2022/01/11 09:00:26;;;;;;;18.97;10.33;;;;;;;2.76;100.00;100128.47;4803233;29;20062;-67
2022/01/11 09:02:52;;;;;;;16.10;9.67;;;;;;;2.78;100.00;100136.25;4808941;29;20129;-67
2022/01/11 09:05:19;;;;;;;17.13;9.77;;;;;;;2.41;100.00;100136.53;4808893;29;20277;-67
2022/01/11 09:07:44;;;;;;;17.13;9.57;;;;;;;2.60;100.00;100137.72;4814803;29;20030;-66
2022/01/11 09:10:10;;;;;;;17.13;9.67;;;;;;;2.57;100.00;100133.53;4808907;29;20760;-67
2022/01/11 09:12:36;;;;;;;16.37;9.87;;;;;;;2.72;100.00;100142.03;4804632;29;20500;-67
2022/01/11 09:15:04;;;;;;;17.93;10.30;;;;;;;2.63;100.00;100140.13;4804537;29;20282;-67
2022/01/11 09:17:29;;;;;;;16.33;9.57;;;;;;;2.78;100.00;100146.81;4804558;29;20051;-68
2022/01/11 09:19:55;;;;;;;15.53;8.83;;;;;;;2.86;100.00;100147.06;4804754;29;20776;-67
2022/01/11 09:22:20;;;;;;;18.03;9.67;;;;;;;2.52;100.00;100143.63;4803497;29;20023;-67
2022/01/11 09:24:47;;;;;;;18.63;9.73;;;;;;;2.59;100.00;100142.16;4803820;29;20026;-70
2022/01/11 09:27:13;;;;;;;17.40;9.63;;;;;;;2.71;100.00;100143.81;4804557;29;20026;-67
2022/01/11 09:29:38;;;;;;;17.73;9.77;;;;;;;2.83;100.00;100140.22;4804456;29;20274;-67
2022/01/11 09:32:06;;;;;;;16.70;9.00;;;;;;;2.75;100.00;100137.34;4806926;29;20301;-68
2022/01/11 09:34:32;;;;;;;17.20;9.30;;;;;;;2.70;100.00;100136.88;4806176;29;20065;-67
2022/01/11 09:36:57;;;;;;;16.30;8.70;;;;;;;3.03;100.00;100125.41;4804499;29;20310;-68
2022/01/11 09:39:23;;;;;;;14.57;8.33;;;;;;;2.72;100.00;100126.19;4804436;29;20517;-67
2022/01/11 09:41:49;;;;;;;16.37;8.63;;;;;;;2.94;100.00;100123.50;4809823;29;20091;-66
2022/01/11 09:44:16;;;;;;;14.77;8.47;;;;;;;3.07;100.00;100126.84;4822785;29;20660;-67
2022/01/11 09:46:41;;;;;;;16.03;8.83;;;;;;;2.78;100.00;100123.88;4822808;29;20323;-67
2022/01/11 09:49:07;;;;;;;15.40;9.00;;;;;;;3.13;100.00;100130.75;4822527;29;20812;-68
2022/01/11 09:51:35;;;;;;;15.27;8.50;;;;;;;3.12;100.00;100127.28;4822589;29;20066;-68
2022/01/11 09:54:03;;;;;;;14.97;8.70;;;;;;;2.82;100.00;100133.25;4822741;29;20030;-67
2022/01/11 09:56:28;;;;;;;17.10;8.87;;;;;;;2.84;100.00;100127.84;4809992;29;20267;-67
2022/01/11 09:58:54;;;;;;;16.20;8.70;;;;;;;3.05;100.00;100122.63;4804455;29;20282;-67
2022/01/11 10:01:19;;;;;;;18.17;9.67;;;;;;;3.03;100.00;100124.56;4804540;29;20031;-68
2022/01/11 10:04:03;;;;;;;17.90;9.33;;;;;;;3.19;100.00;100119.72;4804272;29;20087;-69
2022/01/11 10:06:29;;;;;;;;;;;;;;;3.11;100.00;100114.22;4803742;29;20031;-68
2022/01/11 10:09:07;;;;;;;16.80;8.87;;;;;;;3.14;100.00;100113.97;4804469;29;20446;-67
2022/01/11 10:11:39;;;;;;;17.20;8.97;;;;;;;3.03;100.00;100122.75;4819363;29;20066;-67
2022/01/11 10:14:23;;;;;;;15.87;9.10;;;;;;;3.27;100.00;100110.19;4804338;29;20274;-67
2022/01/11 10:16:50;;;;;;;16.10;8.48;;;;;;;3.18;100.00;100118.03;4804239;29;20274;-68
2022/01/11 10:19:21;;;;;;;17.60;9.10;;;;;;;3.12;100.00;100118.53;4810977;29;20026;-69
2022/01/11 10:21:47;;;;;;;15.60;8.67;;;;;;;2.95;100.00;100119.91;4816371;29;20682;-68
2022/01/11 10:24:35;;;;;;;18.33;9.53;;;;;;;2.86;100.00;100118.00;4823666;29;20270;-67
2022/01/11 10:27:04;;;;;;;16.60;8.63;;;;;;;2.83;100.00;100116.44;4818018;29;20374;-69
2022/01/11 10:29:37;;;;;;;15.73;8.77;;;;;;;2.79;100.00;100114.16;4807487;29;20745;-69
2022/01/11 10:32:26;;;;;;;16.90;9.60;;;;;;;2.83;100.00;100119.09;4807760;29;20757;-67
2022/01/11 10:34:54;;;;;;;15.90;8.63;;;;;;;2.87;100.00;100120.53;4815676;29;20035;-68
2022/01/11 10:37:37;;;;;;;18.40;9.17;;;;;;;3.12;100.00;100115.88;4815650;29;20273;-67
2022/01/11 10:40:19;;;;;;;19.98;10.02;;;;;;;3.03;100.00;100117.47;4813534;29;20266;-68
2022/01/11 10:42:52;;;;;;;17.73;8.70;;;;;;;3.17;100.00;100127.75;4807368;29;20035;-66
2022/01/11 10:45:19;;;;;;;19.27;9.48;;;;;;;3.40;100.00;100123.22;4815053;29;20562;-67
2022/01/11 10:47:47;;;;;;;18.30;8.77;;;;;;;3.08;100.00;100122.41;4822359;29;20042;-67
2022/01/11 10:50:15;;;;;;;17.53;9.20;;;;;;;2.82;100.00;100114.78;4825323;29;20278;-67
2022/01/11 10:52:42;;;;;;;18.70;9.53;;;;;;;3.21;100.00;100120.44;4825078;29;20294;-65
2022/01/11 10:55:12;;;;;;;18.87;10.40;;;;;;;3.22;100.00;100130.88;4825205;29;20270;-65
2022/01/11 10:57:38;;;;;;;18.60;9.70;;;;;;;3.14;100.00;100129.81;4823190;29;20326;-66
2022/01/11 11:00:04;;;;;;;17.07;8.63;;;;;;;3.03;100.00;100129.84;4806873;29;20634;-64
2022/01/11 11:02:29;;;;;;;17.53;9.40;;;;;;;3.15;100.00;100137.59;4807029;29;20481;-64
2022/01/11 11:04:55;;;;;;;17.93;9.37;;;;;;;3.42;100.00;100141.59;4808843;29;20038;-65
2022/01/11 11:07:23;;;;;;;18.23;9.03;;;;;;;3.20;100.00;100138.09;4819561;29;20038;-66
2022/01/11 11:09:51;;;;;;;19.57;9.40;;;;;;;3.02;100.00;100136.06;4818415;29;20246;-65
2022/01/11 11:12:22;;;;;;;19.60;10.17;;;;;;;3.26;100.00;100127.00;4814105;29;20765;-65
2022/01/11 11:14:53;;;;;;;20.33;10.30;;;;;;;3.24;100.00;100131.56;4806927;29;20788;-66